createdAt,value
2023-02-28T00:01:42.309Z,-0.98
2023-02-28T00:11:45.434Z,-1.08
2023-02-28T00:21:48.532Z,-1.16
2023-02-28T00:31:51.758Z,-1.24
2023-02-28T00:41:54.837Z,-1.24
2023-02-28T00:51:58.305Z,-1.29
2023-02-28T01:02:03.270Z,-1.28
2023-02-28T01:12:08.734Z,-1.17
2023-02-28T01:22:12.862Z,-1.18
2023-02-28T01:32:16.083Z,-1.36
2023-02-28T01:42:19.294Z,-1.64
2023-02-28T01:52:24.861Z,-1.94
2023-02-28T02:02:30.525Z,-2.16
2023-02-28T02:13:04.765Z,-2.51
2023-02-28T02:23:09.371Z,-3.00
2023-02-28T02:33:18.385Z,-3.38
2023-02-28T02:43:32.830Z,-3.65
2023-02-28T02:53:42.100Z,-3.94
2023-02-28T03:03:47.965Z,-4.16
2023-02-28T03:14:22.829Z,-4.39
2023-02-28T03:24:54.130Z,-4.75
2023-02-28T03:35:00.435Z,-4.97
2023-02-28T03:45:10.046Z,-5.10
2023-02-28T03:55:16.047Z,-5.37
2023-02-28T04:05:21.384Z,-5.65
2023-02-28T04:15:25.874Z,-5.81
2023-02-28T04:25:29.072Z,-5.95
2023-02-28T04:35:32.239Z,-6.12
2023-02-28T04:45:36.374Z,-6.21
2023-02-28T04:55:41.444Z,-6.23
2023-02-28T05:05:45.009Z,-6.27
2023-02-28T05:15:48.267Z,-6.27
2023-02-28T05:25:53.169Z,-6.27
2023-02-28T05:35:57.360Z,-6.34
2023-02-28T05:46:02.939Z,-6.43
2023-02-28T05:56:06.333Z,-6.33
2023-02-28T06:06:09.458Z,-6.21
2023-02-28T06:16:13.761Z,-5.94
2023-02-28T06:26:17.644Z,-5.59
2023-02-28T06:36:22.095Z,-5.26
2023-02-28T06:46:25.256Z,-4.89
2023-02-28T06:56:28.774Z,-4.22
2023-02-28T07:06:32.394Z,-3.50
2023-02-28T07:16:37.021Z,-2.74
2023-02-28T07:26:40.405Z,-1.76
2023-02-28T07:36:43.480Z,-0.59
2023-02-28T07:46:46.859Z,0.40
2023-02-28T07:56:50.391Z,0.92
2023-02-28T08:06:54.287Z,0.62
2023-02-28T08:16:57.491Z,0.42
2023-02-28T08:27:00.627Z,0.27
2023-02-28T08:37:03.899Z,0.20
2023-02-28T08:47:06.978Z,0.26
2023-02-28T08:57:10.905Z,0.48
2023-02-28T09:07:14.061Z,0.63
2023-02-28T09:17:18.127Z,0.81
2023-02-28T09:27:22.237Z,0.89
2023-02-28T09:37:26.107Z,0.98
2023-02-28T09:47:40.631Z,1.07
2023-02-28T09:57:43.934Z,1.19
2023-02-28T10:08:26.330Z,1.28
2023-02-28T10:18:52.102Z,1.33
2023-02-28T10:28:56.328Z,1.45
2023-02-28T10:39:02.390Z,1.39
2023-02-28T10:49:13.536Z,1.44
2023-02-28T10:59:16.651Z,1.57
2023-02-28T11:09:26.927Z,1.62
2023-02-28T11:19:45.936Z,1.68
2023-02-28T11:29:50.542Z,1.90
2023-02-28T11:39:53.691Z,2.03
2023-02-28T11:50:21.601Z,2.10
2023-02-28T12:00:40.152Z,2.34
2023-02-28T12:10:58.874Z,2.39
2023-02-28T12:21:39.961Z,2.38
2023-02-28T12:31:50.531Z,2.46
2023-02-28T12:42:08.934Z,2.61
2023-02-28T12:52:14.753Z,2.67
2023-02-28T13:02:23.849Z,2.74
2023-02-28T13:12:28.010Z,2.76
2023-02-28T13:22:50.484Z,2.79
2023-02-28T13:33:24.368Z,2.90
2023-02-28T13:44:07.421Z,3.08
2023-02-28T13:54:18.431Z,3.04
2023-02-28T14:04:40.466Z,2.97
2023-02-28T14:14:43.988Z,2.89
2023-02-28T14:25:32.131Z,2.86
2023-02-28T14:36:05.307Z,2.78
2023-02-28T14:46:08.718Z,2.80
2023-02-28T14:56:39.670Z,2.75
2023-02-28T15:06:42.993Z,2.62
2023-02-28T15:16:51.080Z,2.48
2023-02-28T15:26:59.804Z,2.24
2023-02-28T15:37:03.117Z,1.97
2023-02-28T15:47:17.937Z,1.74
2023-02-28T15:57:29.087Z,1.49
2023-02-28T16:07:32.329Z,1.24
2023-02-28T16:17:40.141Z,0.96
2023-02-28T16:27:46.519Z,0.69
2023-02-28T16:37:53.620Z,0.40
2023-02-28T16:47:57.544Z,0.14
2023-02-28T16:58:02.376Z,-0.09
2023-02-28T17:08:06.773Z,-0.29
2023-02-28T17:18:16.945Z,-0.45
2023-02-28T17:28:22.559Z,-0.56
2023-02-28T17:38:25.920Z,-0.68
2023-02-28T17:48:31.438Z,-0.96
2023-02-28T17:58:35.280Z,-1.25
2023-02-28T18:08:39.600Z,-1.46
2023-02-28T18:18:44.349Z,-1.55
2023-02-28T18:28:48.570Z,-1.66
2023-02-28T18:38:52.939Z,-1.77
2023-02-28T18:48:56.184Z,-1.96
2023-02-28T18:58:59.306Z,-2.22
2023-02-28T19:09:04.644Z,-2.37
2023-02-28T19:19:07.890Z,-2.44
2023-02-28T19:29:11.010Z,-2.52
2023-02-28T19:39:14.228Z,-2.68
2023-02-28T19:49:19.695Z,-2.83
2023-02-28T19:59:31.355Z,-2.93
2023-02-28T20:09:42.117Z,-3.04
2023-02-28T20:19:45.702Z,-3.02
2023-02-28T20:29:49.776Z,-3.06
2023-02-28T20:39:53.517Z,-3.20
2023-02-28T20:49:56.721Z,-3.44
2023-02-28T20:59:59.848Z,-3.61
2023-02-28T21:10:03.333Z,-3.68
2023-02-28T21:20:06.887Z,-3.75
2023-02-28T21:30:10.663Z,-3.95
2023-02-28T21:40:14.169Z,-4.07
2023-02-28T21:50:17.324Z,-4.13
2023-02-28T22:00:21.090Z,-4.28
2023-02-28T22:10:25.100Z,-4.49
2023-02-28T22:20:28.180Z,-4.48
2023-02-28T22:30:31.483Z,-4.43
2023-02-28T22:40:35.635Z,-4.54
2023-02-28T22:50:39.829Z,-4.64
2023-02-28T23:00:43.980Z,-4.75
2023-02-28T23:10:47.115Z,-4.89
2023-02-28T23:20:50.261Z,-4.99
2023-02-28T23:30:53.490Z,-5.01
2023-02-28T23:40:56.779Z,-5.07
2023-02-28T23:51:21.004Z,-5.10
